Time;durP1;ratioP1;P1;durP2;ratioP2;P2;SDS_P1;SDS_P2;PMS_P1;PMS_P2;Temp;Humidity;BMP_temperature;BMP_pressure;BME280_temperature;BME280_humidity;BME280_pressure;Samples;Min_cycle;Max_cycle;Signal;HPM_P1;HPM_P2
2022/04/25 00:01:48;;;;;;;2.90;1.30;;;8.40;99.90;;;;;;5025193;28;20517;-58
2022/04/25 00:04:15;;;;;;;2.00;1.10;;;8.40;99.90;;;;;;5023499;28;20095;-58
2022/04/25 00:06:42;;;;;;;1.15;0.95;;;8.40;99.90;;;;;;5025137;28;20124;-57
2022/04/25 00:09:09;;;;;;;1.52;1.15;;;8.30;99.90;;;;;;5021717;28;20566;-58
2022/04/25 00:11:35;;;;;;;2.30;1.38;;;8.30;99.90;;;;;;5024789;28;20080;-58
2022/04/25 00:14:02;;;;;;;1.92;1.30;;;8.30;99.90;;;;;;5022938;28;20532;-59
2022/04/25 00:16:29;;;;;;;2.30;1.45;;;8.20;99.90;;;;;;5025304;28;20128;-57
2022/04/25 00:18:56;;;;;;;2.63;1.50;;;8.20;99.90;;;;;;5023323;28;20053;-58
2022/04/25 00:21:23;;;;;;;1.90;1.30;;;8.10;99.90;;;;;;5025474;28;20497;-58
2022/04/25 00:23:49;;;;;;;2.55;1.20;;;8.10;99.90;;;;;;5024975;28;20048;-58
2022/04/25 00:26:16;;;;;;;1.63;1.05;;;8.10;99.90;;;;;;5025834;28;20639;-58
2022/04/25 00:28:43;;;;;;;3.63;1.73;;;8.10;99.90;;;;;;5041236;28;20362;-58
2022/04/25 00:31:09;;;;;;;1.73;1.17;;;8.10;99.90;;;;;;5042090;28;20077;-58
2022/04/25 00:33:36;;;;;;;3.35;2.00;;;8.10;99.90;;;;;;5019556;28;20473;-58
2022/04/25 00:36:03;;;;;;;2.05;1.50;;;8.10;99.90;;;;;;5025155;28;20148;-58
2022/04/25 00:38:30;;;;;;;1.60;1.40;;;8.10;99.90;;;;;;5024537;28;20045;-58
2022/04/25 00:40:57;;;;;;;2.80;1.80;;;8.00;99.90;;;;;;5023989;28;20131;-58
2022/04/25 00:43:24;;;;;;;2.28;1.52;;;8.00;99.90;;;;;;5023466;28;21020;-57
2022/04/25 00:45:51;;;;;;;2.83;1.23;;;8.00;99.90;;;;;;5023224;28;20053;-58
2022/04/25 00:48:18;;;;;;;2.08;1.38;;;8.00;99.90;;;;;;5024438;28;20042;-58
2022/04/25 00:55:54;;;;;;;2.85;1.50;;;7.90;99.90;;;;;;5033685;28;20081;-57
2022/04/25 00:58:21;;;;;;;2.92;1.90;;;7.90;99.90;;;;;;5034081;28;20072;-57
2022/04/25 01:00:47;;;;;;;2.47;1.50;;;7.80;99.90;;;;;;5041519;28;20140;-60
2022/04/25 01:03:14;;;;;;;2.00;1.40;;;7.80;99.90;;;;;;5041901;28;20383;-59
2022/04/25 01:05:41;;;;;;;3.92;1.38;;;7.80;99.90;;;;;;5034747;28;20057;-60
2022/04/25 01:08:08;;;;;;;4.53;1.70;;;7.80;99.90;;;;;;5031898;28;20206;-60
2022/04/25 01:10:35;;;;;;;2.78;1.73;;;7.70;99.90;;;;;;5041955;28;20057;-60
2022/04/25 01:13:01;;;;;;;2.75;1.73;;;7.80;99.90;;;;;;5042367;28;20048;-59
2022/04/25 01:15:30;;;;;;;2.92;2.10;;;7.70;99.90;;;;;;5029294;28;20217;-60
2022/04/25 01:17:57;;;;;;;2.35;1.73;;;7.70;99.90;;;;;;5032231;28;20522;-59
2022/04/25 01:20:24;;;;;;;4.25;1.75;;;7.70;99.90;;;;;;5022847;28;20041;-60
2022/04/25 01:28:36;;;;;;;3.67;1.60;;;7.60;99.90;;;;;;5027425;28;20465;-60
2022/04/25 01:31:03;;;;;;;2.38;1.50;;;7.60;99.90;;;;;;5029624;28;20108;-55
2022/04/25 01:33:30;;;;;;;1.52;1.40;;;7.50;99.90;;;;;;5040001;28;20084;-58
2022/04/25 01:35:57;;;;;;;3.08;1.67;;;7.50;99.90;;;;;;5044256;28;20059;-57
2022/04/25 01:38:23;;;;;;;2.83;1.65;;;7.50;99.90;;;;;;5036185;28;20571;-58
2022/04/25 01:40:50;;;;;;;2.85;1.80;;;7.50;99.90;;;;;;5044130;28;20535;-57
2022/04/25 01:43:17;;;;;;;2.78;1.48;;;7.40;99.90;;;;;;5037594;28;20045;-56
2022/04/25 01:45:43;;;;;;;4.60;1.83;;;7.40;99.90;;;;;;5023953;28;20087;-57
2022/04/25 01:48:10;;;;;;;4.07;2.03;;;7.40;99.90;;;;;;5036675;28;20118;-57
2022/04/25 01:50:37;;;;;;;3.75;2.20;;;7.40;99.90;;;;;;5039737;28;20903;-56
2022/04/25 01:53:04;;;;;;;2.75;1.90;;;7.40;99.90;;;;;;5036708;28;20088;-57
2022/04/25 01:55:31;;;;;;;2.20;1.63;;;7.30;99.90;;;;;;5024390;28;20156;-57
2022/04/25 01:57:58;;;;;;;3.67;1.75;;;7.30;99.90;;;;;;5025050;28;20087;-58
2022/04/25 02:00:24;;;;;;;4.78;2.25;;;7.30;99.90;;;;;;5042337;28;20087;-57
2022/04/25 02:02:51;;;;;;;3.00;2.10;;;7.20;99.90;;;;;;5043440;28;20087;-56
2022/04/25 02:05:18;;;;;;;3.70;2.00;;;7.20;99.90;;;;;;5032285;28;20546;-55
2022/04/25 02:07:45;;;;;;;3.97;2.35;;;7.30;99.90;;;;;;5024711;28;20049;-57
2022/04/25 02:10:11;;;;;;;3.72;2.70;;;7.20;99.90;;;;;;5024282;28;20156;-59
2022/04/25 02:12:38;;;;;;;5.53;2.67;;;7.20;99.90;;;;;;5025176;28;20133;-58
2022/04/25 02:15:12;;;;;;;3.47;2.08;;;7.20;99.90;;;;;;5023404;28;20600;-59
2022/04/25 02:17:39;;;;;;;4.00;2.78;;;7.20;99.90;;;;;;5023126;28;20041;-56
2022/04/25 02:20:07;;;;;;;4.10;2.60;;;7.20;99.90;;;;;;5023965;28;20076;-57
2022/04/25 02:22:35;;;;;;;4.90;2.72;;;7.20;99.90;;;;;;5024818;28;20378;-57
2022/04/25 02:25:02;;;;;;;3.97;2.65;;;7.20;99.90;;;;;;5024439;28;20045;-57
2022/04/25 02:27:28;;;;;;;3.03;2.47;;;7.20;99.90;;;;;;5024646;28;20132;-55
2022/04/25 02:29:58;;;;;;;5.15;3.22;;;7.20;99.90;;;;;;5043847;28;20077;-57
2022/04/25 02:32:28;;;;;;;6.10;3.45;;;7.20;99.90;;;;;;5031958;28;20055;-57
2022/04/25 02:34:55;;;;;;;7.03;3.40;;;7.20;99.90;;;;;;5024263;28;20111;-56
2022/04/25 02:37:22;;;;;;;3.83;2.75;;;7.20;99.90;;;;;;5024095;28;20128;-56
2022/04/25 02:39:49;;;;;;;6.00;3.17;;;7.20;99.90;;;;;;5022957;28;20049;-57
2022/04/25 02:42:16;;;;;;;4.30;2.88;;;7.30;99.90;;;;;;5024003;28;20168;-56
2022/04/25 02:44:43;;;;;;;4.78;2.80;;;7.30;99.90;;;;;;5022859;28;20064;-58
2022/04/25 02:47:12;;;;;;;3.28;2.10;;;7.30;99.90;;;;;;5022935;28;20055;-55
2022/04/25 02:49:39;;;;;;;3.63;2.50;;;7.40;99.90;;;;;;5023717;28;20561;-57
2022/04/25 02:52:06;;;;;;;3.42;2.25;;;7.40;99.90;;;;;;5024232;28;20132;-56
2022/04/25 02:54:33;;;;;;;2.90;2.00;;;7.40;99.90;;;;;;5024034;28;20512;-57
2022/04/25 02:57:00;;;;;;;5.15;3.00;;;7.50;99.90;;;;;;5023836;28;20053;-56
2022/04/25 02:59:27;;;;;;;3.22;2.15;;;7.60;99.90;;;;;;5040498;28;20136;-57
2022/04/25 03:01:54;;;;;;;3.83;2.15;;;7.60;99.90;;;;;;5041681;28;20044;-57
2022/04/25 03:04:21;;;;;;;3.10;1.80;;;7.70;99.90;;;;;;5039768;28;20057;-57
2022/04/25 03:06:48;;;;;;;3.03;2.05;;;7.80;99.90;;;;;;5023802;28;20081;-61
2022/04/25 03:09:14;;;;;;;2.50;1.40;;;7.80;99.90;;;;;;5023783;28;20568;-56
2022/04/25 03:11:41;;;;;;;3.97;2.28;;;7.90;99.90;;;;;;5034302;28;20656;-56
2022/04/25 03:14:08;;;;;;;3.08;1.63;;;7.90;99.90;;;;;;5042291;28;20133;-57
2022/04/25 03:16:35;;;;;;;1.98;1.50;;;8.00;99.90;;;;;;5041500;28;20072;-57
2022/04/25 03:19:01;;;;;;;5.53;1.67;;;8.10;99.90;;;;;;5042233;28;20583;-57
2022/04/25 03:21:28;;;;;;;3.15;1.95;;;8.10;99.90;;;;;;5042405;28;20139;-58
2022/04/25 03:23:55;;;;;;;5.20;2.72;;;8.10;99.90;;;;;;5041572;28;20124;-55
2022/04/25 03:26:22;;;;;;;5.43;2.03;;;8.10;99.90;;;;;;5040596;28;20049;-55
2022/04/25 03:28:49;;;;;;;2.50;1.80;;;8.10;99.90;;;;;;5042887;28;20451;-56
2022/04/25 03:31:16;;;;;;;3.33;1.90;;;8.10;99.90;;;;;;5041920;28;20049;-58
2022/04/25 03:33:43;;;;;;;2.60;1.90;;;8.20;99.90;;;;;;5041495;28;20049;-57
2022/04/25 03:36:09;;;;;;;2.15;1.67;;;8.20;99.90;;;;;;5042150;28;20059;-58
2022/04/25 03:38:36;;;;;;;3.22;1.50;;;8.30;99.90;;;;;;5023810;28;20079;-57
2022/04/25 03:41:03;;;;;;;2.85;1.60;;;8.30;99.90;;;;;;5023982;28;20141;-57
2022/04/25 03:43:31;;;;;;;2.67;1.75;;;8.30;99.90;;;;;;5023215;28;20085;-56
2022/04/25 03:45:59;;;;;;;2.60;1.45;;;8.30;99.90;;;;;;5022968;28;20049;-58
2022/04/25 03:48:26;;;;;;;2.47;1.48;;;8.30;99.90;;;;;;5021416;28;20133;-56
2022/04/25 03:50:53;;;;;;;2.10;1.70;;;8.20;99.90;;;;;;5023142;28;20455;-57
2022/04/25 03:53:20;;;;;;;4.70;2.00;;;8.10;99.90;;;;;;5023409;28;20133;-55
2022/04/25 03:58:32;;;;;;;2.95;1.50;;;8.10;99.90;;;;;;5023564;28;20069;-57
2022/04/25 04:00:59;;;;;;;3.03;1.80;;;8.10;99.90;;;;;;5022786;28;20124;-58
2022/04/25 04:03:25;;;;;;;2.50;1.80;;;8.10;99.90;;;;;;5027400;28;20107;-57
2022/04/25 04:05:54;;;;;;;1.95;1.33;;;8.10;99.90;;;;;;5027611;28;20574;-56
2022/04/25 04:08:21;;;;;;;2.28;1.58;;;8.10;99.90;;;;;;5026181;28;20149;-57
2022/04/25 04:10:47;;;;;;;3.58;1.70;;;8.00;99.90;;;;;;5026603;28;20077;-57
2022/04/25 04:13:15;;;;;;;2.63;2.00;;;8.00;99.90;;;;;;5023403;28;20072;-58
2022/04/25 04:15:42;;;;;;;3.40;1.90;;;7.90;99.90;;;;;;5022546;28;20053;-57
2022/04/25 04:18:09;;;;;;;2.72;1.80;;;7.90;99.90;;;;;;5023254;28;20037;-57
2022/04/25 04:20:36;;;;;;;2.67;1.75;;;7.80;99.90;;;;;;5022856;28;20543;-58
2022/04/25 04:23:03;;;;;;;5.35;2.55;;;7.70;99.90;;;;;;5041258;28;20483;-57
2022/04/25 04:25:32;;;;;;;4.18;1.98;;;7.60;99.90;;;;;;5029742;28;20099;-58
2022/04/25 04:27:59;;;;;;;2.17;1.67;;;7.60;99.90;;;;;;5029169;28;20053;-56
2022/04/25 04:30:26;;;;;;;3.25;1.80;;;7.50;99.90;;;;;;5039761;28;20503;-57
2022/04/25 04:32:52;;;;;;;3.17;1.70;;;7.50;99.90;;;;;;5027166;28;20053;-57
2022/04/25 04:38:05;;;;;;;5.03;2.70;;;7.30;99.90;;;;;;5026705;28;20640;-59
2022/04/25 04:40:32;;;;;;;3.28;2.13;;;7.30;99.90;;;;;;5026206;28;20057;-58
2022/04/25 04:42:59;;;;;;;4.13;2.53;;;7.30;99.90;;;;;;5023712;28;20515;-56
2022/04/25 04:45:26;;;;;;;3.20;1.95;;;7.30;99.90;;;;;;5022133;28;20459;-56
2022/04/25 04:47:54;;;;;;;2.75;1.90;;;7.50;99.90;;;;;;5036918;28;20553;-56
2022/04/25 04:50:20;;;;;;;5.35;1.80;;;7.50;99.90;;;;;;5039368;28;20471;-58
2022/04/25 04:52:49;;;;;;;2.90;1.88;;;7.60;99.90;;;;;;5040265;28;20645;-57
2022/04/25 04:55:16;;;;;;;2.67;1.70;;;7.70;99.90;;;;;;5039508;28;20451;-56
2022/04/25 04:57:43;;;;;;;3.33;2.00;;;7.70;99.90;;;;;;5039550;28;20555;-56
2022/04/25 05:00:11;;;;;;;4.10;2.78;;;7.70;99.90;;;;;;5037670;28;20053;-58
2022/04/25 05:02:38;;;;;;;3.58;2.35;;;7.70;99.90;;;;;;5038093;28;20069;-58
2022/04/25 05:05:06;;;;;;;3.22;2.00;;;7.80;99.90;;;;;;5035518;28;20515;-58
2022/04/25 05:07:34;;;;;;;2.88;1.63;;;7.80;99.90;;;;;;5040635;28;20073;-58
2022/04/25 05:10:06;;;;;;;3.15;1.73;;;7.90;99.90;;;;;;5037959;28;20084;-58
2022/04/25 05:12:50;;;;;;;4.90;2.30;;;8.00;99.90;;;;;;5034488;28;20073;-57
2022/04/25 05:15:18;;;;;;;6.32;2.33;;;8.00;99.90;;;;;;5029310;28;20411;-57
2022/04/25 05:17:48;;;;;;;4.43;2.55;;;7.90;99.90;;;;;;5031798;28;20080;-58
2022/04/25 05:20:16;;;;;;;6.15;3.33;;;7.90;99.90;;;;;;5028216;28;20104;-57
2022/04/25 05:22:44;;;;;;;4.45;2.80;;;7.90;99.90;;;;;;5034020;28;20144;-57
2022/04/25 05:25:19;;;;;;;6.07;2.70;;;8.00;99.90;;;;;;5029927;28;20067;-57
2022/04/25 05:27:46;;;;;;;2.92;2.17;;;8.10;99.90;;;;;;5029401;28;20125;-58
2022/04/25 05:30:14;;;;;;;3.65;2.25;;;8.10;99.90;;;;;;5038082;28;20086;-58
2022/04/25 05:32:46;;;;;;;4.85;3.10;;;8.10;99.90;;;;;;5035928;28;20132;-58
2022/04/25 05:35:14;;;;;;;3.45;2.42;;;8.20;99.90;;;;;;5039485;28;20130;-58
2022/04/25 05:37:42;;;;;;;3.67;2.15;;;8.20;99.90;;;;;;5033195;28;20169;-56
2022/04/25 05:40:09;;;;;;;4.03;2.50;;;8.20;99.90;;;;;;5038865;28;20059;-58
2022/04/25 05:42:36;;;;;;;3.50;2.33;;;8.20;99.90;;;;;;5039367;28;20082;-58
2022/04/25 05:45:04;;;;;;;4.70;2.40;;;8.20;99.90;;;;;;5027523;28;20140;-57
2022/04/25 05:47:32;;;;;;;2.83;2.20;;;8.30;99.90;;;;;;5022359;28;20081;-58
2022/04/25 05:52:48;;;;;;;3.13;1.73;;;8.50;99.90;;;;;;5026519;28;20400;-57
2022/04/25 05:55:15;;;;;;;2.85;1.80;;;8.50;99.90;;;;;;5032047;28;20132;-57
2022/04/25 05:57:41;;;;;;;3.88;1.98;;;8.50;99.90;;;;;;5023646;28;20125;-57
2022/04/25 06:00:09;;;;;;;2.47;1.50;;;8.50;99.90;;;;;;5036290;28;20064;-58
2022/04/25 06:02:37;;;;;;;2.15;1.63;;;8.50;99.90;;;;;;5036988;28;20547;-56
2022/04/25 06:05:05;;;;;;;2.00;1.52;;;8.50;99.90;;;;;;5038162;28;20106;-58
2022/04/25 06:07:33;;;;;;;2.00;1.40;;;8.50;99.90;;;;;;5038228;28;20062;-58
2022/04/25 06:10:00;;;;;;;3.15;1.58;;;8.50;99.90;;;;;;5033299;28;20591;-58
2022/04/25 06:12:29;;;;;;;3.70;1.90;;;8.50;99.90;;;;;;5023923;28;20049;-58
2022/04/25 06:14:56;;;;;;;2.80;1.58;;;8.50;99.90;;;;;;5035503;28;20140;-58
2022/04/25 06:17:23;;;;;;;2.53;2.00;;;8.50;99.90;;;;;;5031612;28;20120;-58
2022/04/25 06:19:50;;;;;;;2.90;1.90;;;8.60;99.90;;;;;;5036367;28;20314;-58
2022/04/25 06:22:18;;;;;;;3.40;1.80;;;8.70;99.90;;;;;;5034745;28;20080;-57
2022/04/25 06:24:45;;;;;;;3.45;1.98;;;8.70;99.90;;;;;;5029605;28;20058;-59
2022/04/25 06:27:13;;;;;;;2.30;1.50;;;8.80;99.90;;;;;;5034151;28;20135;-59
2022/04/25 06:29:44;;;;;;;3.58;1.80;;;8.80;99.90;;;;;;5033276;28;20057;-59
2022/04/25 06:32:11;;;;;;;3.00;1.80;;;8.80;99.90;;;;;;5038519;28;20414;-59
2022/04/25 06:34:38;;;;;;;2.65;1.70;;;8.80;99.90;;;;;;5037758;28;20072;-60
2022/04/25 06:37:06;;;;;;;4.60;1.95;;;8.80;99.90;;;;;;5037940;28;20210;-58
2022/04/25 06:39:33;;;;;;;3.67;2.28;;;8.80;99.90;;;;;;5037981;28;20045;-59
2022/04/25 06:42:00;;;;;;;4.88;2.38;;;8.90;99.90;;;;;;5038568;28;20380;-59
2022/04/25 06:44:28;;;;;;;4.68;1.83;;;8.90;99.90;;;;;;5038370;28;20084;-58
2022/04/25 06:46:54;;;;;;;4.13;1.90;;;9.00;99.90;;;;;;5037854;28;20124;-59
2022/04/25 06:49:23;;;;;;;3.97;2.20;;;9.10;99.90;;;;;;5037803;28;20169;-58
2022/04/25 06:51:55;;;;;;;3.80;2.22;;;9.10;99.90;;;;;;5038181;28;20099;-59
2022/04/25 06:54:24;;;;;;;3.00;2.10;;;9.20;99.90;;;;;;5038280;28;20044;-58
2022/04/25 06:56:51;;;;;;;2.90;2.00;;;9.30;99.90;;;;;;5038511;28;20135;-58
2022/04/25 06:59:19;;;;;;;2.75;1.70;;;9.40;99.90;;;;;;5037492;28;20132;-58
2022/04/25 07:01:46;;;;;;;5.22;1.90;;;9.40;99.90;;;;;;5036862;28;20067;-58
2022/04/25 07:04:13;;;;;;;5.30;1.95;;;9.50;99.90;;;;;;5036749;28;20056;-58
2022/04/25 07:06:40;;;;;;;3.13;1.90;;;9.60;99.90;;;;;;5038531;28;20132;-59
2022/04/25 07:09:07;;;;;;;2.55;1.70;;;9.60;99.90;;;;;;5039015;28;20146;-58
2022/04/25 07:11:34;;;;;;;3.33;1.80;;;9.70;99.90;;;;;;5033569;28;20145;-58
2022/04/25 07:14:03;;;;;;;2.90;1.40;;;9.60;99.90;;;;;;5029024;28;20045;-58
2022/04/25 07:16:29;;;;;;;4.15;1.98;;;9.70;99.90;;;;;;5019001;28;20085;-58
2022/04/25 07:18:57;;;;;;;2.75;1.60;;;9.70;99.90;;;;;;5023239;28;20057;-57
2022/04/25 07:30:00;;;;;;;2.97;1.50;;;9.90;99.90;;;;;;5026420;28;20128;-58
2022/04/25 07:32:27;;;;;;;3.58;1.85;;;9.90;99.90;;;;;;5030234;28;20485;-58
2022/04/25 07:34:54;;;;;;;2.67;1.80;;;10.00;99.90;;;;;;5032391;28;20100;-58
2022/04/25 07:37:24;;;;;;;2.85;2.08;;;10.00;99.90;;;;;;5035441;28;20276;-58
2022/04/25 07:39:51;;;;;;;3.33;1.77;;;9.90;99.90;;;;;;5020850;28;20051;-59
2022/04/25 07:42:20;;;;;;;2.92;1.60;;;9.90;99.90;;;;;;5021483;28;20045;-59
2022/04/25 07:44:47;;;;;;;3.63;1.65;;;10.00;99.90;;;;;;5037575;28;20073;-59
2022/04/25 07:47:14;;;;;;;2.03;1.38;;;10.00;99.90;;;;;;5036816;28;20084;-59
2022/04/25 07:49:41;;;;;;;4.10;1.73;;;10.10;99.90;;;;;;5037748;28;20107;-58
2022/04/25 07:52:13;;;;;;;2.83;1.20;;;10.20;99.90;;;;;;5037915;28;20545;-58
2022/04/25 07:54:40;;;;;;;2.17;1.35;;;10.30;99.90;;;;;;5036436;28;20049;-58
2022/04/25 07:57:07;;;;;;;1.90;1.27;;;10.40;99.90;;;;;;5037870;28;20088;-58
2022/04/25 07:59:34;;;;;;;2.85;1.33;;;10.40;99.90;;;;;;5038024;28;20049;-58
2022/04/25 08:02:02;;;;;;;4.25;1.90;;;10.50;99.90;;;;;;5036828;28;20136;-58
2022/04/25 08:04:29;;;;;;;1.90;1.40;;;10.50;99.90;;;;;;5039083;28;20052;-58
2022/04/25 08:06:56;;;;;;;2.38;1.10;;;10.60;99.90;;;;;;5041880;28;20125;-58
2022/04/25 08:09:23;;;;;;;1.70;0.90;;;10.80;99.90;;;;;;5041550;28;20080;-58
2022/04/25 08:17:56;;;;;;;1.80;1.40;;;10.90;99.90;;;;;;5041193;28;20591;-58
2022/04/25 08:20:08;;;;;;;3.13;1.40;;;11.10;99.90;;;;;;5041036;28;20132;-58
2022/04/25 08:22:35;;;;;;;2.50;1.23;;;11.20;99.90;;;;;;5041846;28;20113;-58
2022/04/25 08:25:03;;;;;;;1.75;1.23;;;11.30;99.90;;;;;;5041346;28;20144;-58
2022/04/25 08:27:30;;;;;;;2.38;1.35;;;11.20;99.90;;;;;;5041951;28;20060;-58
2022/04/25 08:29:58;;;;;;;3.17;1.40;;;11.20;99.90;;;;;;5041302;28;20642;-58
2022/04/25 08:32:25;;;;;;;2.70;1.35;;;11.20;99.90;;;;;;5041088;28;20061;-59
2022/04/25 08:34:52;;;;;;;2.67;1.63;;;11.20;99.90;;;;;;5039286;28;20088;-59
2022/04/25 08:37:18;;;;;;;1.73;1.42;;;11.30;99.90;;;;;;5040651;28;20140;-59
2022/04/25 08:39:45;;;;;;;3.13;1.75;;;11.30;99.90;;;;;;5040116;28;20496;-58
2022/04/25 08:42:12;;;;;;;2.33;1.73;;;11.30;99.90;;;;;;5041257;28;20099;-59
2022/04/25 08:44:59;;;;;;;2.45;1.52;;;11.30;99.90;;;;;;5042162;28;20045;-58
2022/04/25 08:47:28;;;;;;;2.05;1.40;;;11.30;99.90;;;;;;5039699;28;21034;-58
2022/04/25 08:49:57;;;;;;;2.35;1.20;;;11.30;99.90;;;;;;5037279;28;20127;-59
2022/04/25 08:52:26;;;;;;;3.20;1.50;;;11.30;99.90;;;;;;5039986;28;20496;-58
2022/04/25 08:54:57;;;;;;;2.95;1.73;;;11.20;99.90;;;;;;5044276;28;20057;-58
2022/04/25 08:57:25;;;;;;;2.15;1.60;;;11.10;99.90;;;;;;5038746;28;20068;-57
2022/04/25 08:59:54;;;;;;;3.33;1.80;;;11.10;99.90;;;;;;5044501;28;20216;-58
2022/04/25 09:02:24;;;;;;;3.08;1.85;;;11.20;99.90;;;;;;5038138;28;20055;-59
2022/04/25 09:04:51;;;;;;;2.20;1.33;;;11.30;99.90;;;;;;5026140;28;20435;-56
2022/04/25 09:07:18;;;;;;;1.88;1.50;;;11.40;99.90;;;;;;5040528;28;20084;-58
2022/04/25 09:09:45;;;;;;;2.13;1.40;;;11.50;99.90;;;;;;5046700;28;20211;-59
2022/04/25 09:12:15;;;;;;;2.70;1.73;;;11.60;99.90;;;;;;5029527;28;20072;-58
2022/04/25 09:14:42;;;;;;;4.00;1.70;;;11.80;99.90;;;;;;5034683;28;20049;-58
2022/04/25 09:17:09;;;;;;;3.60;2.15;;;11.70;99.90;;;;;;5028007;28;20591;-60
2022/04/25 09:19:36;;;;;;;3.25;2.20;;;11.70;99.90;;;;;;5043608;28;20128;-59
2022/04/25 09:22:04;;;;;;;2.10;1.70;;;11.90;99.90;;;;;;5035769;28;20375;-58
2022/04/25 09:24:35;;;;;;;2.42;1.70;;;12.00;99.90;;;;;;5027257;28;20496;-58
2022/04/25 09:27:09;;;;;;;3.65;2.10;;;12.00;99.90;;;;;;5032472;28;20155;-58
2022/04/25 09:29:36;;;;;;;1.77;1.50;;;12.20;99.90;;;;;;5037889;28;20495;-57
2022/04/25 09:32:04;;;;;;;4.00;1.70;;;12.30;99.90;;;;;;5022579;28;20060;-58
2022/04/25 09:37:17;;;;;;;4.10;1.90;;;12.40;99.90;;;;;;5043673;28;20071;-58
2022/04/25 09:39:44;;;;;;;3.05;1.80;;;12.40;99.90;;;;;;5043408;28;20155;-58
2022/04/25 09:42:11;;;;;;;2.92;1.90;;;12.30;99.90;;;;;;5043270;28;20537;-58
2022/04/25 09:44:58;;;;;;;2.25;1.60;;;12.30;99.90;;;;;;5043014;28;20118;-58
2022/04/25 09:47:28;;;;;;;2.92;1.95;;;12.30;99.90;;;;;;5027446;28;20455;-58
2022/04/25 09:50:04;;;;;;;2.15;1.55;;;12.20;99.90;;;;;;5022842;28;20128;-58
2022/04/25 09:52:32;;;;;;;5.00;2.03;;;12.30;99.90;;;;;;5023405;28;20148;-58
2022/04/25 09:55:14;;;;;;;4.00;2.70;;;12.30;99.90;;;;;;5026259;28;20140;-58
2022/04/25 09:57:42;;;;;;;2.75;1.90;;;12.50;99.90;;;;;;5023495;28;20065;-58
2022/04/25 10:00:09;;;;;;;2.63;1.60;;;12.60;99.90;;;;;;5030951;28;20427;-58
2022/04/25 10:02:40;;;;;;;3.83;1.63;;;12.90;99.90;;;;;;5042515;28;20048;-57
2022/04/25 10:05:12;;;;;;;3.35;1.90;;;13.10;99.90;;;;;;5042092;28;20132;-57
2022/04/25 10:07:39;;;;;;;4.40;1.88;;;13.20;99.90;;;;;;5036713;28;20087;-57
2022/04/25 10:10:08;;;;;;;1.98;1.60;;;13.20;99.90;;;;;;5030166;28;20143;-58
2022/04/25 10:12:36;;;;;;;2.90;1.67;;;13.30;99.90;;;;;;5025574;28;20049;-57
2022/04/25 10:15:06;;;;;;;3.58;2.00;;;13.30;99.90;;;;;;5024980;28;20049;-57
2022/04/25 10:17:40;;;;;;;2.70;2.05;;;13.40;99.90;;;;;;5040791;28;20087;-57
2022/04/25 10:20:08;;;;;;;2.40;1.50;;;13.40;99.90;;;;;;5036195;28;20042;-57
2022/04/25 10:22:38;;;;;;;2.83;2.00;;;13.30;99.90;;;;;;5041829;28;20084;-58
2022/04/25 10:25:05;;;;;;;3.20;2.00;;;13.30;99.90;;;;;;5026515;28;20077;-58
2022/04/25 10:27:34;;;;;;;3.88;1.90;;;13.30;99.90;;;;;;5026267;28;20474;-59
2022/04/25 10:30:07;;;;;;;2.78;2.00;;;13.40;99.90;;;;;;5007607;28;20128;-59
2022/04/25 10:32:34;;;;;;;2.92;2.10;;;13.60;99.90;;;;;;5043294;28;20055;-61
2022/04/25 10:35:00;;;;;;;1.83;1.50;;;13.60;99.90;;;;;;5044586;28;20187;-59
2022/04/25 10:37:37;;;;;;;2.50;1.80;;;13.80;99.90;;;;;;5043737;28;20088;-59
2022/04/25 10:40:08;;;;;;;2.50;1.73;;;14.30;99.90;;;;;;5042722;28;20111;-59
2022/04/25 10:45:59;;;;;;;2.40;1.70;;;14.60;99.90;;;;;;5041549;28;20135;-59
2022/04/25 10:48:27;;;;;;;3.88;2.38;;;14.70;99.90;;;;;;5032032;28;20063;-59
2022/04/25 10:51:12;;;;;;;3.95;2.38;;;14.50;99.90;;;;;;5022222;28;20196;-58
2022/04/25 10:54:01;;;;;;;4.78;2.90;;;14.30;99.90;;;;;;5028352;28;20076;-58
2022/04/25 10:56:28;;;;;;;3.20;1.75;;;14.10;99.90;;;;;;5037502;28;20350;-59
2022/04/25 10:59:27;;;;;;;2.70;1.80;;;14.40;99.90;;;;;;5038490;28;20053;-58
2022/04/25 11:01:58;;;;;;;2.35;1.70;;;14.70;99.90;;;;;;5037543;28;20057;-60
2022/04/25 11:04:25;;;;;;;2.60;2.20;;;15.10;99.90;;;;;;5038463;28;20049;-59
2022/04/25 11:07:21;;;;;;;3.38;2.40;;;15.10;99.90;;;;;;5038668;28;20172;-58
2022/04/25 11:09:48;;;;;;;2.92;1.90;;;14.60;99.90;;;;;;5038277;28;20135;-58
2022/04/25 11:12:14;;;;;;;2.72;2.05;;;14.50;99.90;;;;;;5038798;28;20053;-59
2022/04/25 11:14:57;;;;;;;3.90;2.13;;;14.50;99.90;;;;;;5020202;28;20701;-58
2022/04/25 11:17:26;;;;;;;2.65;1.73;;;14.50;99.90;;;;;;5037483;28;20102;-59
2022/04/25 11:19:57;;;;;;;2.90;1.90;;;14.80;99.90;;;;;;5038351;28;20053;-58
2022/04/25 11:22:31;;;;;;;3.70;1.95;;;15.20;99.90;;;;;;5035082;28;20060;-59
2022/04/25 11:25:27;;;;;;;3.15;2.05;;;15.30;99.90;;;;;;5025207;28;20131;-59
2022/04/25 11:28:10;;;;;;;3.08;2.08;;;15.50;99.90;;;;;;5018784;28;20145;-58
2022/04/25 11:30:37;;;;;;;5.10;2.60;;;15.20;99.90;;;;;;5029435;28;20122;-59
2022/04/25 11:33:04;;;;;;;2.80;2.28;;;14.70;99.90;;;;;;5036788;28;20524;-58
2022/04/25 11:35:33;;;;;;;2.20;1.73;;;14.60;99.90;;;;;;5037963;28;20176;-58
2022/04/25 11:38:00;;;;;;;3.35;1.98;;;15.00;99.90;;;;;;5038585;28;20143;-59
2022/04/25 11:40:27;;;;;;;2.17;1.63;;;15.40;99.90;;;;;;5041736;28;20558;-58
2022/04/25 11:42:54;;;;;;;2.97;1.80;;;15.40;99.90;;;;;;5044396;28;20140;-59
2022/04/25 11:45:21;;;;;;;2.92;2.03;;;15.50;99.90;;;;;;5026172;28;20052;-59
2022/04/25 11:47:48;;;;;;;2.50;1.88;;;15.80;99.90;;;;;;5026000;28;20049;-59
2022/04/25 11:50:18;;;;;;;3.78;2.47;;;15.70;99.00;;;;;;5028446;28;20137;-58
2022/04/25 11:52:45;;;;;;;2.53;2.00;;;15.30;99.30;;;;;;5029006;28;20049;-58
2022/04/25 11:55:12;;;;;;;3.40;2.13;;;14.80;99.90;;;;;;5027912;28;20140;-59
2022/04/25 11:57:39;;;;;;;4.78;2.13;;;14.70;99.90;;;;;;5027593;28;20124;-59
2022/04/25 12:00:10;;;;;;;4.00;2.20;;;14.60;99.90;;;;;;5027792;28;20099;-60
2022/04/25 12:02:37;;;;;;;3.40;2.15;;;14.60;99.90;;;;;;5028384;28;20054;-59
2022/04/25 12:05:07;;;;;;;2.50;2.03;;;14.40;99.90;;;;;;5027931;28;20404;-59
2022/04/25 12:07:35;;;;;;;4.13;2.20;;;14.30;99.90;;;;;;5028444;28;20446;-58
2022/04/25 12:15:38;;;;;;;2.63;1.70;;;14.10;99.90;;;;;;5023612;28;20068;-58
2022/04/25 12:18:18;;;;;;;3.92;2.10;;;14.00;99.90;;;;;;5006995;28;20138;-59
2022/04/25 12:20:50;;;;;;;4.32;2.25;;;14.00;99.90;;;;;;5026108;28;20560;-58
2022/04/25 12:23:21;;;;;;;3.83;2.50;;;14.00;99.90;;;;;;5026936;28;20080;-59
2022/04/25 12:25:48;;;;;;;2.50;1.73;;;14.40;99.90;;;;;;5024598;28;20095;-59
2022/04/25 12:28:18;;;;;;;3.35;2.08;;;15.10;99.90;;;;;;5025265;28;20228;-59
2022/04/25 12:30:57;;;;;;;2.50;1.85;;;16.00;99.70;;;;;;5027569;28;20357;-59
2022/04/25 12:33:38;;;;;;;2.70;1.75;;;16.40;98.00;;;;;;5027500;28;20136;-59
2022/04/25 12:36:20;;;;;;;2.40;1.98;;;16.90;96.60;;;;;;5027735;28;20057;-59
2022/04/25 12:39:12;;;;;;;3.65;2.08;;;17.00;95.10;;;;;;5026324;28;20484;-59
2022/04/25 12:41:58;;;;;;;2.58;1.92;;;16.70;94.20;;;;;;5027299;28;20049;-59
2022/04/25 12:44:26;;;;;;;2.55;1.88;;;16.70;94.10;;;;;;5027612;28;20144;-59
2022/04/25 12:47:04;;;;;;;2.08;1.45;;;17.10;94.70;;;;;;5025521;28;20060;-60
2022/04/25 12:49:32;;;;;;;1.88;1.40;;;17.80;93.30;;;;;;5026903;28;20120;-59
2022/04/25 12:51:59;;;;;;;1.10;0.90;;;18.30;92.70;;;;;;5027662;28;20081;-59
2022/04/25 12:54:35;;;;;;;1.55;1.15;;;18.20;91.20;;;;;;5026872;28;20425;-59
2022/04/25 12:57:15;;;;;;;1.70;1.00;;;18.00;91.20;;;;;;5026371;28;20071;-60
2022/04/25 12:59:44;;;;;;;2.25;1.10;;;17.90;91.40;;;;;;5027500;28;20132;-59
2022/04/25 13:02:16;;;;;;;1.48;1.38;;;17.70;91.30;;;;;;5026652;28;20137;-59
2022/04/25 13:04:59;;;;;;;;;;;18.60;90.80;;;;;;5027593;28;20041;-58
2022/04/25 13:07:30;;;;;;;1.95;1.15;;;19.70;90.20;;;;;;5027744;28;20333;-59
2022/04/25 13:09:58;;;;;;;2.42;1.55;;;20.50;86.10;;;;;;5027209;28;20053;-58
2022/04/25 13:12:32;;;;;;;2.47;1.83;;;19.80;83.30;;;;;;5026142;28;20637;-59
2022/04/25 13:14:59;;;;;;;2.05;1.50;;;18.60;86.60;;;;;;5025804;28;20103;-59
2022/04/25 13:17:36;;;;;;;1.75;1.55;;;17.80;92.10;;;;;;5027043;28;20067;-59
2022/04/25 13:20:04;;;;;;;2.83;2.00;;;17.10;95.70;;;;;;5026699;28;20080;-59
2022/04/25 13:22:31;;;;;;;2.47;1.77;;;16.20;99.90;;;;;;5027748;28;20145;-59
2022/04/25 13:24:57;;;;;;;1.98;1.52;;;15.40;99.90;;;;;;5033467;28;20136;-59
2022/04/25 13:27:25;;;;;;;1.42;1.33;;;14.90;99.90;;;;;;5040677;28;20052;-59
2022/04/25 13:29:52;;;;;;;3.00;2.05;;;14.40;99.90;;;;;;5040692;28;20206;-59
2022/04/25 13:32:19;;;;;;;1.63;1.40;;;14.00;99.90;;;;;;5035171;28;20080;-59
2022/04/25 13:34:45;;;;;;;1.63;1.30;;;13.90;99.90;;;;;;5039489;28;20141;-58
2022/04/25 13:37:13;;;;;;;2.65;1.70;;;14.00;99.90;;;;;;5035733;28;20085;-59
2022/04/25 13:39:39;;;;;;;1.40;1.10;;;14.10;99.90;;;;;;5025048;28;20046;-59
2022/04/25 13:42:06;;;;;;;1.10;1.00;;;14.30;99.90;;;;;;5034798;28;20095;-59
2022/04/25 13:44:33;;;;;;;1.63;1.23;;;14.50;99.90;;;;;;5032612;28;20465;-59
2022/04/25 13:47:00;;;;;;;2.65;1.30;;;14.80;99.90;;;;;;5038568;28;20132;-58